Franklin, Alabama
Current Conditions -  °F | °C
As of 3:53 PM on Tuesday 21 Oct 2014 (Local Time) from KGZH Reporting Station
Clear Clear  
Wind Chill: 81°   Ceiling: Unl
Heat Index: 81°   Visibility: 10mi
Dew Point: 52°   Wind: 7mph
Humidity: 36%   Direction: 350°N
Pressure: 29.97"   Gusts: NA
Location:  31.71°N, 87.44°W
Report Text: KGZH 212053Z AUTO 35006KT 10SM CLR 27/11 A2997 RMK AO2 SLP146 T02720111 56019
Loading
Personal Weather Stations






























Interactive Weather Map
Tropical Storm Tracking
New forecast layout! Learn more

10-Day Weather Forecast

Advertisements
Track Severe Weather on mobile